• Join FlightAware (Why Join?)
  • Login
  • US Flag 
01:41AM EST


 

Airport Tracker/Info


-or-


 

Live Flight TrackerFlight Track Log ✈ AVN21 ✈ 09-Mar-2014 ✈ YBBN / BNE - NVVV / VLI

Flight Track Log - Related Links

Times and Time Zones

All times are in EDT time to prevent confusion due to time zone crossing. See the AVN21 flight status page for this flight to view local times or setup timezone preferences in your user account.

Time Position Orientation Groundspeed Altitude Reporting Facility
EDT Latitude Longitude Course Direction KTS MPH feet Rate Location/Type
06:26AM -27.3685 153.1378 28° Northeast 168 193 600  Level FlightAware ADS-B
06:27AM -27.3626 153.1411 42° Northeast 175 201 1,100 2,160 Climbing Aus ATC (RADAR)
06:27AM -27.3563 153.1474 43° Northeast 171 197 1,300 960 Climbing FlightAware ADS-B
06:27AM -27.3447 153.1603 45° Northeast 195 224 1,600 1,560 Climbing FlightAware ADS-B
06:27AM -27.3296 153.1759 42° Northeast 207 238 2,400 2,580 Climbing FlightAware ADS-B
06:28AM -27.3201 153.1879 60° Northeast 203 234 3,400 2,520 Climbing FlightAware ADS-B
06:28AM -27.3126 153.2053 73° East 213 245 4,100 1,440 Climbing FlightAware ADS-B
06:28AM -27.3054 153.2359 75° East 244 281 4,400 1,320 Climbing FlightAware ADS-B
06:29AM -27.2813 153.3197 72° East 307 353 5,900 2,100 Climbing FlightAware ADS-B
06:30AM -27.2662 153.3714 72° East 309 356 7,700 3,240 Climbing Aus ATC (RADAR)
06:30AM -27.2555 153.4095 72° East 314 361 8,900 2,940 Climbing FlightAware ADS-B (SNTF / TXF)
06:31AM -27.2372 153.4726 72° East 317 365 10,900 2,640 Climbing Aus ATC (RADAR)
06:31AM -27.2285 153.5040 72° East 334 384 11,500 2,520 Climbing FlightAware ADS-B (SNTF / TXF)
06:32AM -27.2285 153.5040 72° East 342 394 12,400 2,640 Climbing FlightAware ADS-B (SNTF / TXF)
06:32AM -27.2106 153.5661 72° East 349 402 13,200 2,400 Climbing FlightAware ADS-B (SNTF / TXF)
06:33AM -27.1875 153.6429 72° East 358 412 15,000 2,280 Climbing Aus ATC (RADAR)
06:33AM -27.1644 153.6927 58° Northeast 372 428 16,100 2,520 Climbing FlightAware ADS-B (YTWB)
06:33AM -27.1533 153.7114 56° Northeast 378 435 16,700 2,640 Climbing FlightAware ADS-B
06:34AM -27.1165 153.7734 56° Northeast 384 442 18,300 2,700 Climbing FlightAware ADS-B (YTWB)
06:34AM -27.0938 153.8115 56° Northeast 388 447 19,300 2,520 Climbing FlightAware ADS-B (SNTF / TXF)
06:35AM -27.0790 153.8362 56° Northeast 396 456 20,000 1,740 Climbing FlightAware ADS-B
06:35AM -27.0444 153.8940 56° Northeast 409 471 20,800 1,680 Climbing FlightAware ADS-B (YTWB)
06:36AM -27.0127 153.9472 57° Northeast 418 481 21,700 1,860 Climbing FlightAware ADS-B (YTWB)
06:36AM -26.9796 154.0026 56° Northeast 430 495 22,700 1,920 Climbing FlightAware ADS-B (YTWB)
06:37AM -26.9442 154.0619 56° Northeast 441 507 23,700 1,740 Climbing FlightAware ADS-B
06:38AM -26.8740 154.1771 56° Northeast 453 521 25,400 1,500 Climbing Aus ATC (RADAR)
06:38AM -26.8521 154.2152 56° Northeast 466 536 25,800 1,620 Climbing FlightAware ADS-B
06:39AM -26.8079 154.2879 56° Northeast 468 539 26,900 1,680 Climbing Aus ATC (RADAR)
06:39AM -26.8025 154.2977 56° Northeast 475 547 26,900 1,500 Level FlightAware ADS-B
06:39AM -26.7581 154.3691 56° Northeast 474 545 27,900 1,440 Climbing Aus ATC (RADAR)
06:39AM -26.7537 154.3786 56° Northeast 483 556 27,900 1,680 Level FlightAware ADS-B
06:40AM -26.6706 154.5138 56° Northeast 480 552 29,900 1,920 Climbing Aus ATC (RADAR)
06:41AM -26.6291 154.5851 56° Northeast 470 541 31,100 1,320 Climbing FlightAware ADS-B
06:42AM -26.5847 154.6581 56° Northeast 482 555 31,500 900 Climbing FlightAware ADS-B
06:42AM -26.5792 154.6673 56° Northeast 473 544 31,700 660 Climbing Aus ATC (RADAR)
06:42AM -26.5318 154.7448 56° Northeast 493 567 32,000 840 Climbing FlightAware ADS-B
06:43AM -26.4836 154.8252 56° Northeast 493 567 32,800 1,260 Climbing Aus ATC (RADAR)
06:44AM -26.4377 154.8991 55° Northeast 494 568 33,600 1,080 Climbing Aus ATC (RADAR)
06:44AM -26.3864 154.9848 56° Northeast 496 571 34,200 960 Climbing Aus ATC (RADAR)
06:45AM -26.3600 155.0277 56° Northeast 499 574 34,600 960 Climbing Aus ATC (RADAR)
06:45AM -26.3133 155.1023 55° Northeast 501 577 35,100 1,020 Climbing Aus ATC (RADAR)
06:46AM -26.2606 155.1897 56° Northeast 506 582 35,900 1,440 Climbing Aus ATC (RADAR)
06:46AM -26.2148 155.2646 56° Northeast 500 575 36,900 1,500 Climbing Aus ATC (RADAR)
06:47AM -26.1698 155.3389 56° Northeast 494 568 37,700 1,320 Climbing Aus ATC (RADAR)
06:48AM -26.1114 155.4316 55° Northeast 485 558 38,700 1,080 Climbing Aus ATC (RADAR)
06:48AM -26.0666 155.5033 55° Northeast 481 554 39,200 420 Climbing Aus ATC (RADAR)
06:49AM -26.0224 155.5760 56° Northeast 481 554 39,200  Level Aus ATC (RADAR)
06:50AM -25.9716 155.6590 56° Northeast 482 555 39,200  Level Aus ATC (RADAR)
06:50AM -25.9266 155.7309 55° Northeast 481 554 39,200  Level Aus ATC (RADAR)
06:51AM -25.8817 155.8031 55° Northeast 482 555 39,200  Level Aus ATC (RADAR)
06:51AM -25.8432 155.8648 55° Northeast 481 554 39,200  Level Aus ATC (RADAR)
06:52AM -25.7976 155.9356 54° Northeast 479 551 39,200  Level Aus ATC (RADAR)
06:53AM -25.7325 156.0369 55° Northeast 479 551 39,200  Level Aus ATC (RADAR)
06:53AM -25.7075 156.0783 56° Northeast 479 551 39,200 -180 Level Aus ATC (RADAR)
06:53AM -25.6760 156.1308 56° Northeast 478 550 39,100  Descending Aus ATC (RADAR)
06:54AM -25.6399 156.1940 58° Northeast 478 550 39,200  Climbing Aus ATC (RADAR)
06:55AM -25.5792 156.2990 57° Northeast 479 551 39,100  Descending Aus ATC (RADAR)
06:55AM -25.5431 156.3621 58° Northeast 480 552 39,200 -120 Climbing Aus ATC (RADAR)
06:56AM -25.5004 156.4359 57° Northeast 481 554 39,000 -180 Descending Aus ATC (RADAR)
06:56AM -25.4572 156.5092 57° Northeast 481 554 39,000  Level Aus ATC (RADAR)
06:57AM -25.4140 156.5827 57° Northeast 482 555 39,000  Level Aus ATC (RADAR)
06:58AM -25.3517 156.6875 57° Northeast 483 556 39,000  Level Aus ATC (RADAR)
06:58AM -25.3200 156.7395 56° Northeast 483 556 39,000  Level Aus ATC (RADAR)
06:59AM -25.2765 156.8135 57° Northeast 484 557 39,000  Level Aus ATC (RADAR)
06:59AM -25.2254 156.8971 56° Northeast 485 558 39,000  Level Aus ATC (RADAR)
07:00AM -25.1994 156.9386 55° Northeast 486 559 39,000  Level Aus ATC (RADAR)
07:00AM -25.1472 157.0203 55° Northeast 485 558 39,000  Level Aus ATC (RADAR)
07:01AM -25.0887 157.1141 55° Northeast 485 558 39,000  Level Aus ATC (RADAR)
07:02AM -25.0451 157.1876 57° Northeast 485 558 39,000  Level Aus ATC (RADAR)
07:02AM -25.0016 157.2620 57° Northeast 484 557 39,000  Level Aus ATC (RADAR)
07:03AM -24.9893 157.2820 56° Northeast 484 557 39,000  Level Aus ATC (RADAR)
07:07AM -24.6540 157.8443 57° Northeast 39,000  Level Aus ATC (Calculated)
07:08AM -24.5277 158.0544 236° Southwest 39,000  Level Aus ATC (Calculated)
07:09AM -24.7773 157.6414 236° Southwest  Level FlightAware Approximate
07:10AM -24.6059 157.9262 236° Southwest  Level FlightAware Approximate
07:11AM -24.6738 157.8145 236° Southwest  Level FlightAware Approximate
07:12AM -24.7416 157.7028 236° Southwest  Level FlightAware Approximate
07:13AM -24.8094 157.5909 236° Southwest  Level FlightAware Approximate
07:14AM -24.8770 157.4789 236° Southwest  Level FlightAware Approximate
07:15AM -24.9446 157.3668 236° Southwest  Level FlightAware Approximate
07:16AM -25.0121 157.2546 236° Southwest  Level FlightAware Approximate
07:17AM -25.0795 157.1422 236° Southwest  Level FlightAware Approximate
07:18AM -25.1468 157.0298 237° Southwest  Level FlightAware Approximate
07:19AM -25.2141 156.9171 237° Southwest  Level FlightAware Approximate
07:20AM -25.2812 156.8044 237° Southwest  Level FlightAware Approximate
07:20AM -23.6584 159.4686 236° Southwest 39,000  Level Aus ATC (Calculated)
07:21AM -23.7273 159.3585 236° Southwest  Level FlightAware Approximate
07:22AM -23.7961 159.2483 236° Southwest  Level FlightAware Approximate
07:22AM -23.4833 159.7487 236° Southwest 39,000  Level Aus ATC (Calculated)
07:24AM -23.6055 159.5542 236° Southwest  Level FlightAware Approximate
07:25AM -23.6739 159.4450 236° Southwest  Level FlightAware Approximate
07:26AM -23.7423 159.3357 236° Southwest  Level FlightAware Approximate
07:27AM -23.8105 159.2263 236° Southwest  Level FlightAware Approximate
07:28AM -23.7427 159.3360 57° Northeast  Level Estimated
07:29AM -23.6760 159.4466 57° Northeast  Level FlightAware Approximate
07:30AM -23.6093 159.5570 57° Northeast  Level FlightAware Approximate
07:31AM -23.6760 159.4466 237° Southwest  Level FlightAware Approximate
07:31AM -22.7025 160.9794 235° Southwest 39,000  Level Aus ATC (Calculated)
07:32AM -23.6093 159.5570 57° Northeast  Level FlightAware Approximate
07:33AM -22.7835 160.8538 235° Southwest  Level FlightAware Approximate
07:34AM -22.8529 160.7460 235° Southwest  Level FlightAware Approximate
07:35AM -22.4566 161.3611 235° Southwest 39,000  Level Aus ATC (Calculated)
07:35AM -22.9222 160.6380 235° Southwest  Level FlightAware Approximate
07:36AM -22.5262 161.2538 235° Southwest  Level FlightAware Approximate
07:37AM -22.5958 161.1463 235° Southwest  Level FlightAware Approximate
07:38AM -22.6653 161.0388 235° Southwest  Level FlightAware Approximate
07:39AM -22.7347 160.9311 235° Southwest  Level FlightAware Approximate
07:40AM -22.8041 160.8233 235° Southwest  Level FlightAware Approximate
07:41AM -22.8734 160.7155 235° Southwest  Level FlightAware Approximate
07:42AM -22.9426 160.6075 235° Southwest  Level FlightAware Approximate
07:43AM -23.0117 160.4993 235° Southwest  Level FlightAware Approximate
07:44AM -23.0808 160.3911 235° Southwest  Level FlightAware Approximate
07:45AM -23.1498 160.2828 235° Southwest  Level FlightAware Approximate
07:45AM -21.6173 162.6436 234° Southwest 39,000  Level Aus ATC (Calculated)
07:47AM -21.7568 162.4330 234° Southwest  Level FlightAware Approximate
07:48AM -21.8271 162.3266 235° Southwest  Level FlightAware Approximate
07:49AM -21.8973 162.2202 235° Southwest  Level FlightAware Approximate
07:50AM -21.9674 162.1136 235° Southwest  Level FlightAware Approximate
07:51AM -22.0375 162.0070 235° Southwest  Level FlightAware Approximate
07:52AM -22.1075 161.9002 235° Southwest  Level FlightAware Approximate
07:53AM -22.1774 161.7934 235° Southwest  Level FlightAware Approximate
07:54AM -22.2472 161.6864 235° Southwest  Level FlightAware Approximate
07:55AM -22.3170 161.5793 235° Southwest  Level FlightAware Approximate
07:56AM -22.3867 161.4721 235° Southwest  Level FlightAware Approximate
07:57AM -22.4563 161.3648 235° Southwest  Level FlightAware Approximate
07:58AM -22.5259 161.2574 235° Southwest  Level FlightAware Approximate
07:59AM -22.4567 161.3651 56° Northeast  Level Estimated
08:00AM -22.3871 161.4724 55° Northeast  Level FlightAware Approximate
08:01AM -22.3174 161.5796 55° Northeast  Level FlightAware Approximate
08:02AM -22.2476 161.6867 55° Northeast  Level FlightAware Approximate
08:03AM -22.1778 161.7937 55° Northeast  Level FlightAware Approximate
08:04AM -22.1078 161.9005 55° Northeast  Level FlightAware Approximate
08:05AM -22.0379 162.0073 55° Northeast  Level FlightAware Approximate
08:06AM -21.9678 162.1139 55° Northeast  Level FlightAware Approximate
08:07AM -21.8977 162.2205 55° Northeast  Level FlightAware Approximate
08:08AM -21.8275 162.3269 55° Northeast  Level FlightAware Approximate
08:09AM -21.7572 162.4333 55° Northeast  Level FlightAware Approximate
08:10AM -21.6869 162.5395 55° Northeast  Level FlightAware Approximate
08:11AM -21.6165 162.6456 55° Northeast  Level FlightAware Approximate
08:12AM -21.5460 162.7517 54° Northeast  Level FlightAware Approximate
08:13AM -21.4755 162.8576 54° Northeast  Level FlightAware Approximate
08:14AM -21.4049 162.9634 54° Northeast  Level FlightAware Approximate
08:15AM -21.3342 163.0692 54° Northeast  Level FlightAware Approximate
08:16AM -21.4049 162.9634 234° Southwest  Level FlightAware Approximate
08:17AM -21.3342 163.0692 54° Northeast  Level FlightAware Approximate
08:18AM -21.4049 162.9634 234° Southwest  Level FlightAware Approximate
08:19AM -21.3342 163.0692 54° Northeast  Level FlightAware Approximate
08:20AM -21.4049 162.9634 234° Southwest  Level FlightAware Approximate
08:21AM -21.3342 163.0692 54° Northeast  Level FlightAware Approximate
08:22AM -21.4049 162.9634 234° Southwest  Level FlightAware Approximate
08:23AM -21.3342 163.0692 54° Northeast  Level FlightAware Approximate
08:24AM -21.4049 162.9634 234° Southwest  Level FlightAware Approximate
08:25AM -21.3342 163.0692 54° Northeast  Level FlightAware Approximate
08:26AM -21.4049 162.9634 234° Southwest  Level FlightAware Approximate
08:27AM -21.3342 163.0692 54° Northeast  Level FlightAware Approximate
08:28AM -21.4049 162.9634 234° Southwest  Level FlightAware Approximate
08:29AM -21.3342 163.0692 54° Northeast  Level FlightAware Approximate
08:30AM -21.4049 162.9634 234° Southwest  Level FlightAware Approximate
08:31AM -21.3633 163.0253 54° Northeast  Level FlightAware Approximate
08:32AM -21.2919 163.1305 54° Northeast  Level FlightAware Approximate
08:33AM -21.2205 163.2355 54° Northeast  Level FlightAware Approximate
08:34AM -21.1490 163.3404 54° Northeast  Level FlightAware Approximate
08:35AM -21.0774 163.4453 54° Northeast  Level FlightAware Approximate
08:36AM -21.0058 163.5500 54° Northeast  Level FlightAware Approximate
08:37AM -20.9341 163.6546 54° Northeast  Level FlightAware Approximate
08:38AM -20.8623 163.7592 54° Northeast  Level FlightAware Approximate
08:39AM -20.7905 163.8636 54° Northeast  Level FlightAware Approximate
08:40AM -20.7186 163.9680 54° Northeast  Level FlightAware Approximate
08:41AM -20.6467 164.0722 54° Northeast  Level FlightAware Approximate
08:42AM -20.5747 164.1763 54° Northeast  Level FlightAware Approximate
08:43AM -20.5026 164.2804 54° Northeast  Level FlightAware Approximate
08:44AM -20.4305 164.3843 53° Northeast  Level FlightAware Approximate
08:45AM -20.3583 164.4882 53° Northeast  Level FlightAware Approximate
08:46AM -20.2860 164.5919 53° Northeast  Level FlightAware Approximate
08:47AM -20.2137 164.6956 53° Northeast  Level FlightAware Approximate
08:48AM -20.1413 164.7991 53° Northeast  Level FlightAware Approximate
08:49AM -20.0689 164.9026 53° Northeast  Level FlightAware Approximate
08:50AM -19.9963 165.0059 53° Northeast  Level FlightAware Approximate
08:51AM -19.9238 165.1092 53° Northeast  Level FlightAware Approximate
08:52AM -19.8512 165.2124 53° Northeast  Level FlightAware Approximate
08:53AM -19.7785 165.3155 53° Northeast  Level FlightAware Approximate
08:54AM -19.7057 165.4185 53° Northeast  Level FlightAware Approximate
08:55AM -19.6329 165.5213 53° Northeast  Level FlightAware Approximate
08:56AM -19.5601 165.6241 53° Northeast  Level FlightAware Approximate
08:57AM -19.4872 165.7269 53° Northeast  Level FlightAware Approximate
08:58AM -19.4142 165.8295 53° Northeast  Level FlightAware Approximate
08:59AM -19.3412 165.9320 53° Northeast  Level FlightAware Approximate
09:00AM -19.2681 166.0344 53° Northeast  Level FlightAware Approximate
09:01AM -19.1950 166.1367 53° Northeast  Level FlightAware Approximate
09:02AM -19.1217 166.2390 53° Northeast  Level FlightAware Approximate
09:03AM -19.0485 166.3412 53° Northeast  Level FlightAware Approximate
09:04AM -18.9752 166.4432 53° Northeast  Level FlightAware Approximate
09:05AM -18.9018 166.5452 53° Northeast  Level FlightAware Approximate
09:06AM -18.8284 166.6471 53° Northeast  Level FlightAware Approximate
09:07AM -18.7549 166.7489 53° Northeast  Level FlightAware Approximate
09:08AM -18.6814 166.8506 53° Northeast  Level FlightAware Approximate
09:09AM -18.6078 166.9522 53° Northeast  Level FlightAware Approximate
09:10AM -18.5341 167.0537 53° Northeast  Level FlightAware Approximate
09:11AM -18.4604 167.1552 53° Northeast  Level FlightAware Approximate
09:12AM -18.3867 167.2565 53° Northeast  Level FlightAware Approximate
09:13AM -18.3129 167.3578 52° Northeast  Level FlightAware Approximate
09:14AM -18.2390 167.4590 52° Northeast  Level FlightAware Approximate
09:15AM -18.1651 167.5601 52° Northeast  Level FlightAware Approximate
09:16AM -18.0911 167.6611 52° Northeast  Level FlightAware Approximate
09:17AM -18.0171 167.7620 52° Northeast  Level FlightAware Approximate
09:18AM -17.9431 167.8629 52° Northeast  Level FlightAware Approximate
09:19AM -17.8689 167.9637 52° Northeast  Level FlightAware Approximate
09:20AM -17.7948 168.0643 52° Northeast  Level FlightAware Approximate